Time;durP1;ratioP1;P1;durP2;ratioP2;P2;SDS_P1;SDS_P2;PMS_P1;PMS_P2;Temp;Humidity;BMP_temperature;BMP_pressure;BME280_temperature;BME280_humidity;BME280_pressure;Samples;Min_cycle;Max_cycle;Signal;HPM_P1;HPM_P2
2023/08/23 00:03:29;;;;;;;1.40;1.30;;;;;;;23.15;61.54;96971.81;10443756;28;20021;-30
2023/08/23 00:08:29;;;;;;;1.27;1.17;;;;;;;23.15;61.52;96965.88;10446136;28;20083;-30
2023/08/23 00:13:29;;;;;;;0.90;0.90;;;;;;;23.09;61.40;96956.56;10428216;28;20401;-29
2023/08/23 00:18:30;;;;;;;1.03;0.93;;;;;;;23.16;61.71;96970.94;10423788;28;20503;-29
2023/08/23 00:23:30;;;;;;;1.37;1.27;;;;;;;23.16;61.69;96975.22;10437228;28;20051;-30
2023/08/23 00:28:30;;;;;;;1.50;1.40;;;;;;;23.15;61.47;96966.69;10425371;28;20087;-29
2023/08/23 00:33:31;;;;;;;1.40;1.30;;;;;;;23.15;61.49;96961.59;10415210;28;20032;-29
2023/08/23 00:38:31;;;;;;;1.00;1.00;;;;;;;23.16;61.48;96967.56;10447844;28;20029;-30
2023/08/23 00:43:32;;;;;;;1.17;1.08;;;;;;;23.13;61.81;96958.19;10431168;28;21050;-30
2023/08/23 00:48:33;;;;;;;0.90;0.90;;;;;;;23.14;61.48;96957.34;10435436;28;20112;-30
2023/08/23 00:53:34;;;;;;;1.17;1.13;;;;;;;23.15;61.48;96959.03;10431701;28;20030;-29
2023/08/23 00:58:35;;;;;;;1.00;1.00;;;;;;;23.16;61.44;96959.91;10425102;28;20032;-30
2023/08/23 01:03:35;;;;;;;1.17;1.08;;;;;;;23.16;61.46;96955.63;10429122;28;20041;-29
2023/08/23 01:09:14;;;;;;;1.13;1.10;;;;;;;23.16;61.48;96962.44;10418295;28;20029;-30
2023/08/23 01:14:32;;;;;;;1.05;0.95;;;;;;;23.16;61.21;96959.91;10224914;28;20802;-30
2023/08/23 01:19:44;;;;;;;0.98;0.98;;;;;;;23.15;61.28;96961.59;10391965;28;20064;-30
2023/08/23 01:24:48;;;;;;;1.02;0.95;;;;;;;23.16;61.53;96959.91;10419277;28;20052;-30
2023/08/23 01:29:48;;;;;;;1.38;1.27;;;;;;;23.16;61.17;96949.69;10450045;28;20120;-30
2023/08/23 01:35:11;;;;;;;0.93;0.93;;;;;;;23.15;61.34;96961.59;10434856;28;20055;-30
2023/08/23 01:40:12;;;;;;;1.13;1.02;;;;;;;23.15;61.40;96956.50;10426384;28;20534;-30
2023/08/23 01:45:12;;;;;;;1.00;1.00;;;;;;;23.15;61.44;96959.03;10419756;28;20037;-29
2023/08/23 01:50:13;;;;;;;1.20;1.08;;;;;;;23.16;61.31;96958.16;10421859;28;20048;-29
2023/08/23 01:55:17;;;;;;;0.88;0.88;;;;;;;23.14;61.35;96965.00;10426209;28;20035;-29
2023/08/23 02:00:17;;;;;;;0.90;0.90;;;;;;;23.15;61.37;96969.25;10426853;28;20449;-29
2023/08/23 02:05:18;;;;;;;1.10;1.10;;;;;;;23.15;61.52;96961.59;10445984;28;20032;-30
2023/08/23 02:10:20;;;;;;;0.90;0.90;;;;;;;23.15;61.40;96961.59;10409351;28;20303;-29
2023/08/23 02:15:20;;;;;;;1.40;1.30;;;;;;;23.15;61.32;96956.50;10411173;28;20462;-29
2023/08/23 02:20:21;;;;;;;1.07;0.97;;;;;;;23.15;61.26;96953.09;10443122;28;20287;-30
2023/08/23 02:25:21;;;;;;;0.82;0.82;;;;;;;23.15;61.29;96951.38;10435838;28;20037;-29
2023/08/23 02:30:22;;;;;;;0.80;0.80;;;;;;;23.15;61.38;96961.59;10448420;28;20048;-29
2023/08/23 02:35:22;;;;;;;0.83;0.83;;;;;;;23.17;61.36;96964.13;10429933;28;20075;-30
2023/08/23 02:40:22;;;;;;;0.80;0.80;;;;;;;23.16;61.29;96963.28;10423903;28;20384;-29
2023/08/23 02:45:23;;;;;;;0.97;0.90;;;;;;;23.16;61.38;96958.16;10433009;28;20033;-29
2023/08/23 02:50:23;;;;;;;1.13;1.03;;;;;;;23.16;61.29;96970.13;10424414;28;20817;-30
2023/08/23 02:55:23;;;;;;;1.00;1.00;;;;;;;23.17;61.34;96969.25;10449274;28;20506;-30
2023/08/23 03:00:24;;;;;;;1.03;1.00;;;;;;;23.16;61.36;96958.16;10425483;28;20033;-30
2023/08/23 03:05:24;;;;;;;0.77;0.77;;;;;;;23.16;61.26;96957.34;10440136;28;20033;-30
2023/08/23 03:10:25;;;;;;;1.00;1.00;;;;;;;23.15;61.22;96955.66;10445385;28;20048;-30
2023/08/23 03:15:25;;;;;;;1.10;1.00;;;;;;;23.16;61.28;96952.22;10449203;28;20029;-30
2023/08/23 03:20:25;;;;;;;0.73;0.73;;;;;;;23.17;61.38;96966.69;10442485;28;20807;-29
2023/08/23 03:25:26;;;;;;;1.00;0.90;;;;;;;23.15;61.32;96953.94;10424951;28;20437;-29
2023/08/23 03:30:27;;;;;;;0.98;0.98;;;;;;;23.16;61.38;96960.72;10445786;28;20275;-30
2023/08/23 03:35:27;;;;;;;1.10;1.00;;;;;;;23.16;61.35;96953.06;10430590;28;20021;-30
2023/08/23 03:40:28;;;;;;;0.80;0.80;;;;;;;23.17;61.28;96954.75;10431197;28;20041;-29
2023/08/23 03:45:29;;;;;;;0.93;0.90;;;;;;;23.16;61.16;96945.41;10421191;28;20036;-30
2023/08/23 03:50:30;;;;;;;0.80;0.80;;;;;;;23.15;61.29;96946.25;10437340;28;20769;-30
2023/08/23 03:55:30;;;;;;;1.10;1.00;;;;;;;23.17;60.76;96946.25;10436502;28;20033;-29
2023/08/23 04:00:31;;;;;;;1.27;1.17;;;;;;;23.17;61.17;96949.63;10438133;28;20685;-30
2023/08/23 04:05:31;;;;;;;1.00;1.00;;;;;;;23.17;61.05;96949.63;10450437;28;20044;-29
2023/08/23 04:10:32;;;;;;;0.90;0.90;;;;;;;23.17;61.21;96948.81;10437501;28;20057;-30
2023/08/23 04:15:32;;;;;;;1.30;1.20;;;;;;;23.16;61.34;96945.41;10423008;28;20034;-29
2023/08/23 04:20:33;;;;;;;1.00;1.00;;;;;;;23.16;61.24;96947.94;10425533;28;20407;-29
2023/08/23 04:25:33;;;;;;;0.90;0.90;;;;;;;23.16;61.13;96942.00;10450334;28;20029;-29
2023/08/23 04:30:33;;;;;;;1.17;1.07;;;;;;;23.11;61.18;96929.28;10423292;28;20352;-30
2023/08/23 04:35:35;;;;;;;0.85;0.85;;;;;;;23.18;61.10;96950.50;10440338;28;20033;-29
2023/08/23 04:40:36;;;;;;;1.20;1.10;;;;;;;23.17;61.22;96948.81;10407450;28;20487;-30
2023/08/23 04:45:39;;;;;;;0.90;0.90;;;;;;;23.17;61.19;96947.09;10438967;28;20103;-31
2023/08/23 04:50:41;;;;;;;0.80;0.80;;;;;;;23.16;61.12;96953.06;10426605;28;20036;-30
2023/08/23 04:55:43;;;;;;;0.90;0.90;;;;;;;23.17;61.07;96944.53;10432670;28;20037;-30
2023/08/23 05:00:44;;;;;;;0.90;0.90;;;;;;;23.16;61.05;96945.41;10442662;28;20383;-30
2023/08/23 05:05:45;;;;;;;0.90;0.90;;;;;;;23.18;61.07;96946.25;10423039;28;20108;-29
2023/08/23 05:10:54;;;;;;;1.05;0.88;;;;;;;23.17;61.06;96949.63;10424687;28;20116;-30
2023/08/23 05:15:56;;;;;;;1.00;1.00;;;;;;;23.16;61.13;96950.50;10420749;28;20036;-29
2023/08/23 05:20:59;;;;;;;1.13;1.02;;;;;;;23.17;61.13;96954.75;10425707;28;20031;-30
2023/08/23 05:26:02;;;;;;;0.88;0.85;;;;;;;23.12;61.06;96943.75;10432854;28;20491;-29
2023/08/23 05:31:03;;;;;;;1.05;1.00;;;;;;;23.17;61.29;96957.31;10436855;28;20090;-29
2023/08/23 05:36:03;;;;;;;1.08;0.98;;;;;;;23.17;61.21;96959.84;10427821;28;20039;-30
2023/08/23 05:41:04;;;;;;;1.27;1.17;;;;;;;23.18;61.16;96966.69;10449070;28;20045;-29
2023/08/23 05:46:05;;;;;;;1.20;1.10;;;;;;;23.17;61.14;96967.50;10422086;28;20041;-29
2023/08/23 05:51:05;;;;;;;1.15;1.10;;;;;;;23.18;61.11;96971.78;10442453;28;20092;-29
2023/08/23 05:56:06;;;;;;;0.90;0.90;;;;;;;23.17;61.12;96967.50;10419382;28;20032;-29
2023/08/23 06:01:06;;;;;;;0.80;0.80;;;;;;;23.14;61.13;96957.34;10442186;28;20048;-34
2023/08/23 06:06:07;;;;;;;1.20;1.10;;;;;;;23.18;61.08;96971.78;10446891;28;20287;-30
2023/08/23 06:11:07;;;;;;;0.82;0.82;;;;;;;23.17;61.05;96970.06;10437664;28;20299;-30
2023/08/23 06:16:08;;;;;;;0.97;0.97;;;;;;;23.19;61.11;96972.63;10433453;28;20025;-30
2023/08/23 06:21:09;;;;;;;1.20;1.10;;;;;;;23.19;60.82;96963.25;10437813;28;20037;-29
2023/08/23 06:26:09;;;;;;;1.10;1.00;;;;;;;23.18;61.08;96964.13;10424892;28;20037;-30
2023/08/23 06:31:20;;;;;;;1.10;1.00;;;;;;;23.19;61.03;96968.38;10422341;28;20037;-29
2023/08/23 06:36:21;;;;;;;0.80;0.80;;;;;;;23.20;61.09;96964.09;10429249;28;20045;-30
2023/08/23 06:41:21;;;;;;;0.97;0.97;;;;;;;23.20;61.03;96961.53;10438681;28;20057;-30
2023/08/23 06:46:21;;;;;;;1.30;1.20;;;;;;;23.19;61.18;96962.41;10449114;28;20029;-30
2023/08/23 06:51:23;;;;;;;1.13;1.03;;;;;;;23.19;61.16;96965.81;10436069;28;20037;-30
2023/08/23 06:56:25;;;;;;;0.93;0.93;;;;;;;23.19;61.19;96968.38;10440733;28;20338;-30
2023/08/23 07:01:25;;;;;;;0.90;0.90;;;;;;;23.19;60.89;96965.81;10456525;28;20055;-31
2023/08/23 07:06:26;;;;;;;0.85;0.85;;;;;;;23.19;61.22;96963.25;10424602;28;20045;-30
2023/08/23 07:11:26;;;;;;;0.77;0.77;;;;;;;23.19;61.16;96958.16;10447845;28;20025;-30
2023/08/23 07:16:27;;;;;;;0.83;0.83;;;;;;;23.19;61.36;96968.38;10445445;28;20040;-30
2023/08/23 07:21:27;;;;;;;0.97;0.90;;;;;;;23.14;61.18;96949.69;10443173;28;20288;-29
2023/08/23 07:26:27;;;;;;;1.10;1.00;;;;;;;23.20;61.21;96964.94;10447977;28;20514;-30
2023/08/23 07:31:28;;;;;;;0.87;0.87;;;;;;;23.20;61.06;96957.28;10422233;28;20399;-30
2023/08/23 07:36:28;;;;;;;0.87;0.87;;;;;;;23.21;61.25;96958.09;10447745;28;20507;-30
2023/08/23 07:41:29;;;;;;;1.03;0.93;;;;;;;23.20;61.16;96964.94;10436660;28;20041;-30
2023/08/23 07:46:31;;;;;;;1.08;1.08;;;;;;;23.21;61.06;96965.75;10438141;28;20411;-29
2023/08/23 07:51:32;;;;;;;1.00;1.00;;;;;;;23.21;61.03;96961.50;10443420;28;20086;-29
2023/08/23 07:56:32;;;;;;;0.80;0.80;;;;;;;23.21;61.38;96971.72;10430023;28;20377;-30
2023/08/23 08:01:32;;;;;;;1.30;1.20;;;;;;;23.22;61.16;96982.81;10438699;28;20287;-29
2023/08/23 08:06:33;;;;;;;1.20;1.10;;;;;;;23.23;61.15;96980.22;10430811;28;20072;-30
2023/08/23 08:11:33;;;;;;;1.23;1.13;;;;;;;23.22;61.43;96983.63;10445512;28;20318;-29
2023/08/23 08:16:33;;;;;;;1.20;1.10;;;;;;;23.24;61.20;96987.00;10422513;28;20036;-30
2023/08/23 08:21:34;;;;;;;1.27;1.17;;;;;;;23.25;61.27;96991.25;10441959;28;20041;-30
2023/08/23 08:26:34;;;;;;;1.20;1.10;;;;;;;23.24;61.10;96983.63;10452965;28;20085;-30
2023/08/23 08:31:36;;;;;;;0.80;0.80;;;;;;;23.24;61.22;96987.00;10417163;28;20032;-30
2023/08/23 08:36:36;;;;;;;1.30;1.13;;;;;;;23.23;61.28;96990.44;10445868;28;20089;-30
2023/08/23 08:41:39;;;;;;;1.10;1.00;;;;;;;23.24;61.24;96992.13;10418725;28;20042;-30
2023/08/23 08:46:39;;;;;;;0.90;0.90;;;;;;;23.25;60.98;96991.25;10442963;28;20279;-30
2023/08/23 08:51:43;;;;;;;1.30;1.20;;;;;;;23.25;61.27;96993.78;10452422;28;20040;-30
2023/08/23 08:56:46;;;;;;;1.30;1.20;;;;;;;23.23;61.29;96995.53;10439092;28;20399;-28
2023/08/23 09:01:49;;;;;;;0.90;0.90;;;;;;;23.24;61.13;96992.13;10429275;28;20037;-31
2023/08/23 09:06:51;;;;;;;1.27;1.17;;;;;;;23.24;61.28;96991.28;10422355;28;20041;-29
2023/08/23 09:11:52;;;;;;;1.15;1.08;;;;;;;23.25;61.42;96988.69;10429516;28;20029;-30
2023/08/23 09:16:52;;;;;;;1.00;0.90;;;;;;;23.27;61.18;96986.13;10436011;28;20033;-30
2023/08/23 09:21:52;;;;;;;1.30;1.20;;;;;;;23.26;61.16;96979.31;10413234;28;22327;-30
2023/08/23 09:26:53;;;;;;;1.17;1.07;;;;;;;23.25;61.33;96983.56;10421021;28;20411;-30
2023/08/23 09:31:53;;;;;;;1.23;1.13;;;;;;;23.24;61.06;96979.34;10418177;28;21304;-29
2023/08/23 09:37:04;;;;;;;0.90;0.90;;;;;;;23.26;61.17;96969.97;10425072;28;20813;-30
2023/08/23 09:42:13;;;;;;;1.10;1.00;;;;;;;23.26;61.28;96964.00;10442643;28;20299;-29
2023/08/23 09:47:15;;;;;;;1.35;1.25;;;;;;;23.27;62.38;96966.53;10436652;28;20051;-31
2023/08/23 09:52:16;;;;;;;1.25;1.15;;;;;;;23.34;63.89;96972.41;10441370;28;20099;-29
2023/08/23 09:57:19;;;;;;;1.30;1.20;;;;;;;23.26;63.43;96949.53;10422912;28;20118;-30
2023/08/23 10:02:19;;;;;;;1.80;1.70;;;;;;;23.35;61.82;96968.97;10409185;28;20045;-30
2023/08/23 10:07:20;;;;;;;2.27;1.40;;;;;;;23.31;61.92;96978.38;10415021;28;20040;-30
2023/08/23 10:12:21;;;;;;;1.38;1.27;;;;;;;23.31;61.77;96980.94;10416793;28;20665;-30
2023/08/23 10:17:22;;;;;;;1.27;1.17;;;;;;;23.30;61.62;96984.38;10441852;28;20091;-29
2023/08/23 10:22:24;;;;;;;1.67;1.10;;;;;;;23.31;61.59;96986.06;10428252;28;20086;-28
2023/08/23 10:27:27;;;;;;;1.40;1.30;;;;;;;23.31;61.86;96980.13;10424808;28;20092;-30
2023/08/23 10:32:36;;;;;;;1.50;1.40;;;;;;;23.30;61.59;96979.25;10431865;28;20032;-30
2023/08/23 10:37:36;;;;;;;2.67;1.58;;;;;;;23.29;61.67;96972.47;10428882;28;20079;-30
2023/08/23 10:42:36;;;;;;;1.47;1.37;;;;;;;23.31;61.49;96967.34;10432762;28;20033;-30
2023/08/23 10:47:37;;;;;;;2.20;1.70;;;;;;;23.27;61.59;96958.88;10424468;28;20041;-29
2023/08/23 10:52:37;;;;;;;1.57;1.33;;;;;;;23.30;61.48;96966.47;10426273;28;20188;-30
2023/08/23 10:57:38;;;;;;;1.95;1.40;;;;;;;23.31;61.51;96967.34;10448984;28;20115;-30
2023/08/23 11:02:41;;;;;;;1.60;1.50;;;;;;;23.31;61.63;96968.16;10437025;28;20033;-29
2023/08/23 11:07:42;;;;;;;2.97;1.30;;;;;;;23.30;61.62;96966.47;10440729;28;20551;-29
2023/08/23 11:12:42;;;;;;;1.65;1.55;;;;;;;23.31;61.56;96968.16;10416096;28;20120;-30
2023/08/23 11:17:43;;;;;;;1.30;1.20;;;;;;;23.31;61.62;96968.16;10437952;28;20516;-30
2023/08/23 11:22:43;;;;;;;2.28;1.60;;;;;;;23.33;61.69;96963.03;10452983;28;20402;-30
2023/08/23 11:27:44;;;;;;;1.60;1.50;;;;;;;23.31;61.67;96963.06;10439983;28;20494;-29
2023/08/23 11:32:44;;;;;;;1.85;1.75;;;;;;;23.32;61.72;96969.84;10431089;28;20096;-30
2023/08/23 11:37:48;;;;;;;2.00;1.43;;;;;;;23.33;61.76;96971.53;10419206;28;20029;-29
2023/08/23 11:42:48;;;;;;;1.42;1.33;;;;;;;23.33;61.62;96971.53;10430891;28;20300;-30
2023/08/23 11:47:54;;;;;;;3.00;1.40;;;;;;;23.32;61.49;96969.84;10416720;28;20032;-30
2023/08/23 11:52:55;;;;;;;1.77;1.67;;;;;;;23.33;61.84;96965.59;10439802;28;20056;-31
2023/08/23 11:57:55;;;;;;;2.83;1.80;;;;;;;23.29;61.87;96962.25;10442771;28;20475;-29
2023/08/23 12:02:56;;;;;;;1.80;1.70;;;;;;;23.34;61.99;96964.72;10422867;28;20534;-30
2023/08/23 12:07:56;;;;;;;2.03;1.50;;;;;;;23.34;61.91;96970.66;10431186;28;20555;-30
2023/08/23 12:12:57;;;;;;;1.70;1.60;;;;;;;23.35;62.07;96977.50;10438938;28;20035;-29
2023/08/23 12:17:58;;;;;;;1.63;1.45;;;;;;;23.34;61.33;96964.72;10437489;28;20435;-29
2023/08/23 12:22:59;;;;;;;1.53;1.43;;;;;;;23.34;61.79;96963.00;10432409;28;20028;-29
2023/08/23 12:27:59;;;;;;;2.03;1.70;;;;;;;23.35;61.95;96967.28;10437424;28;20029;-30
2023/08/23 12:33:00;;;;;;;1.80;1.50;;;;;;;23.35;61.91;96961.31;10437036;28;20035;-29
2023/08/23 12:38:00;;;;;;;1.70;1.60;;;;;;;23.37;62.31;96967.22;10417783;28;20087;-30
2023/08/23 12:43:01;;;;;;;2.37;1.97;;;;;;;23.36;61.74;96971.50;10435076;28;20036;-29
2023/08/23 12:48:01;;;;;;;2.88;1.90;;;;;;;23.35;62.06;96964.72;10417888;28;20043;-29
2023/08/23 12:53:02;;;;;;;1.98;1.77;;;;;;;23.35;61.95;96964.72;10420867;28;20042;-29
2023/08/23 12:58:02;;;;;;;1.67;1.58;;;;;;;23.35;61.83;96941.72;10413411;28;20021;-29
2023/08/23 13:03:04;;;;;;;1.87;1.77;;;;;;;23.36;61.72;96945.97;10413234;28;20033;-29
2023/08/23 13:08:04;;;;;;;1.67;1.58;;;;;;;23.33;61.93;96945.16;10428820;28;20719;-29
2023/08/23 13:13:05;;;;;;;1.90;1.70;;;;;;;23.37;62.12;96947.63;10431878;28;20086;-29
2023/08/23 13:18:05;;;;;;;1.50;1.40;;;;;;;23.35;61.83;96939.16;10443321;28;20033;-29
2023/08/23 13:23:06;;;;;;;1.60;1.50;;;;;;;23.36;62.20;96940.84;10415910;28;20040;-30
2023/08/23 13:28:07;;;;;;;2.53;1.55;;;;;;;23.37;62.06;96934.88;10443665;28;20042;-30
2023/08/23 13:33:08;;;;;;;2.40;2.20;;;;;;;23.37;62.17;96932.31;10420119;28;20052;-29
2023/08/23 13:38:08;;;;;;;2.33;1.70;;;;;;;23.37;62.13;96932.31;10442755;28;20045;-29
2023/08/23 13:43:09;;;;;;;1.87;1.67;;;;;;;23.39;62.14;96928.00;10424158;28;20032;-30
2023/08/23 13:48:09;;;;;;;1.40;1.30;;;;;;;23.39;62.17;96927.19;10440602;28;20030;-30
2023/08/23 13:53:09;;;;;;;1.80;1.70;;;;;;;23.38;62.14;96926.31;10426385;28;20032;-29
2023/08/23 13:58:10;;;;;;;1.40;1.30;;;;;;;23.39;62.46;96925.47;10425507;28;20041;-30
2023/08/23 14:03:10;;;;;;;1.60;1.50;;;;;;;23.40;62.41;96927.13;10450136;28;20407;-30
2023/08/23 14:08:10;;;;;;;1.93;1.83;;;;;;;23.39;62.21;96922.06;10437380;28;20438;-30
2023/08/23 14:13:11;;;;;;;1.60;1.50;;;;;;;23.39;62.33;96920.34;10439756;28;20432;-30
2023/08/23 14:18:11;;;;;;;1.50;1.40;;;;;;;23.39;62.14;96924.63;10412204;28;20036;-30
2023/08/23 14:23:11;;;;;;;1.80;1.70;;;;;;;23.39;62.28;96924.63;10419718;28;20034;-30
2023/08/23 14:28:12;;;;;;;1.80;1.70;;;;;;;23.39;62.08;96919.53;10425088;28;20040;-29
2023/08/23 14:33:15;;;;;;;1.65;1.55;;;;;;;23.40;62.39;96921.19;10427524;28;20033;-30
2023/08/23 14:38:15;;;;;;;1.70;1.60;;;;;;;23.38;61.61;96915.25;10433109;28;20558;-29
2023/08/23 14:43:15;;;;;;;1.77;1.67;;;;;;;23.40;62.45;96916.91;10416170;28;20041;-31
2023/08/23 14:48:16;;;;;;;1.75;1.65;;;;;;;23.41;62.36;96918.59;10431183;28;20783;-30
2023/08/23 14:53:16;;;;;;;1.60;1.50;;;;;;;23.39;62.14;96917.78;10426577;28;20036;-30
2023/08/23 14:58:17;;;;;;;1.90;1.73;;;;;;;23.35;62.26;96908.50;10446859;28;20029;-29
2023/08/23 15:03:17;;;;;;;1.80;1.70;;;;;;;23.42;62.40;96922.00;10436626;28;20792;-29
2023/08/23 15:08:17;;;;;;;2.37;1.80;;;;;;;23.41;62.19;96921.16;10436993;28;20040;-30
2023/08/23 15:13:18;;;;;;;1.65;1.55;;;;;;;23.42;62.80;96916.91;10440110;28;20025;-29
2023/08/23 15:18:18;;;;;;;1.65;1.55;;;;;;;23.42;62.29;96916.91;10426812;28;20043;-29
2023/08/23 15:23:21;;;;;;;1.53;1.43;;;;;;;23.41;62.16;96918.59;10456255;28;20037;-29
2023/08/23 15:28:22;;;;;;;1.88;1.63;;;;;;;23.40;62.34;96911.81;10411972;28;20487;-31
2023/08/23 15:33:22;;;;;;;1.50;1.40;;;;;;;23.41;62.01;96916.03;10430930;28;20044;-29
2023/08/23 15:38:22;;;;;;;1.93;1.70;;;;;;;23.41;62.18;96910.94;10427965;28;20041;-29
2023/08/23 15:43:23;;;;;;;1.57;1.47;;;;;;;23.41;62.31;96908.38;10429284;28;20041;-30
2023/08/23 15:48:23;;;;;;;1.63;1.47;;;;;;;23.41;62.01;96908.38;10433149;28;20041;-30
2023/08/23 15:53:23;;;;;;;1.27;1.17;;;;;;;23.40;61.91;96898.19;10448394;28;20036;-30
2023/08/23 15:58:24;;;;;;;1.42;1.33;;;;;;;23.40;62.07;96903.31;10446891;28;20041;-29
2023/08/23 16:03:25;;;;;;;1.60;1.50;;;;;;;23.42;62.25;96893.91;10443423;28;20442;-29
2023/08/23 16:08:26;;;;;;;1.33;1.23;;;;;;;23.41;62.28;96898.16;10437430;28;20066;-29
2023/08/23 16:13:27;;;;;;;1.83;1.73;;;;;;;23.41;62.12;96893.03;10430186;28;20056;-29
2023/08/23 16:18:27;;;;;;;1.45;1.20;;;;;;;23.41;62.07;96887.94;10435609;28;20038;-30
2023/08/23 16:23:27;;;;;;;1.48;1.38;;;;;;;23.41;61.92;96887.13;10428845;28;21657;-31
2023/08/23 16:28:28;;;;;;;1.43;1.33;;;;;;;23.39;62.03;96884.56;10423833;28;20042;-30
2023/08/23 16:33:28;;;;;;;1.75;1.65;;;;;;;23.40;61.78;96876.03;10439713;28;20064;-29
2023/08/23 16:38:29;;;;;;;1.20;1.10;;;;;;;23.40;62.01;96865.81;10424000;28;20087;-28
2023/08/23 16:43:30;;;;;;;1.60;1.50;;;;;;;23.41;62.13;96859.81;10430923;28;20033;-30
2023/08/23 16:48:31;;;;;;;1.40;1.30;;;;;;;23.41;62.16;96870.03;10433882;28;20041;-29
2023/08/23 16:53:31;;;;;;;1.37;1.27;;;;;;;23.41;61.94;96862.38;10441336;28;20021;-30
2023/08/23 16:58:32;;;;;;;1.20;1.10;;;;;;;23.41;61.76;96872.59;10438864;28;20078;-29
2023/08/23 17:03:32;;;;;;;1.73;1.10;;;;;;;23.41;61.91;96877.72;10428926;28;20527;-28
2023/08/23 17:08:32;;;;;;;1.17;1.13;;;;;;;23.41;61.73;96867.50;10419783;28;20478;-30
2023/08/23 17:13:33;;;;;;;1.17;1.07;;;;;;;23.40;61.80;96868.38;10432945;28;20411;-30
2023/08/23 17:18:33;;;;;;;1.25;1.15;;;;;;;23.40;61.80;96864.97;10443004;28;20086;-30
2023/08/23 17:23:34;;;;;;;1.30;1.20;;;;;;;23.40;61.78;96865.81;10443394;28;20083;-30
2023/08/23 17:28:34;;;;;;;1.37;1.23;;;;;;;23.39;61.91;96864.13;10426258;28;20033;-29
2023/08/23 17:33:35;;;;;;;0.90;0.90;;;;;;;23.40;61.74;96870.09;10438075;28;20058;-30
2023/08/23 17:38:35;;;;;;;1.20;1.10;;;;;;;23.41;61.71;96877.72;10432383;28;20323;-30
2023/08/23 17:43:39;;;;;;;1.20;1.10;;;;;;;23.37;61.69;96878.66;10442558;28;20025;-30
2023/08/23 17:48:39;;;;;;;1.17;1.08;;;;;;;23.40;61.70;96886.25;10424021;28;20459;-30
2023/08/23 17:53:40;;;;;;;1.17;1.07;;;;;;;23.40;61.58;96896.47;10446437;28;20025;-30
2023/08/23 17:58:40;;;;;;;1.23;1.13;;;;;;;23.40;61.65;96895.66;10429223;28;20028;-29
2023/08/23 18:03:41;;;;;;;1.15;1.05;;;;;;;23.39;61.77;96889.69;10429948;28;20042;-30
2023/08/23 18:08:42;;;;;;;1.10;1.00;;;;;;;23.36;61.89;96894.84;10415848;28;20051;-29
2023/08/23 18:13:42;;;;;;;1.20;1.10;;;;;;;23.39;61.65;96899.91;10420151;28;20029;-29
2023/08/23 18:18:43;;;;;;;1.00;0.80;;;;;;;23.39;61.50;96902.47;10446599;28;20712;-29
2023/08/23 18:23:43;;;;;;;1.00;0.90;;;;;;;23.37;61.57;96909.31;10437993;28;20037;-29
2023/08/23 18:28:43;;;;;;;0.90;0.90;;;;;;;23.37;61.46;96901.66;10430395;28;20041;-30
2023/08/23 18:33:44;;;;;;;1.03;1.00;;;;;;;23.38;61.65;96907.59;10424101;28;20081;-29
2023/08/23 18:38:44;;;;;;;0.97;0.90;;;;;;;23.37;61.67;96906.75;10446285;28;20036;-29
2023/08/23 18:43:44;;;;;;;1.00;0.93;;;;;;;23.36;61.65;96915.28;10425880;28;20037;-29
2023/08/23 18:48:45;;;;;;;0.80;0.80;;;;;;;23.37;61.44;96916.97;10449395;28;20031;-30
2023/08/23 18:53:46;;;;;;;1.30;1.20;;;;;;;23.36;61.52;96925.50;10440262;28;20790;-30
2023/08/23 18:58:49;;;;;;;0.82;0.82;;;;;;;23.36;61.54;96925.50;10451658;28;20273;-29
2023/08/23 19:03:49;;;;;;;1.10;1.00;;;;;;;23.36;61.46;96930.63;10435991;28;20385;-30
2023/08/23 19:08:50;;;;;;;0.70;0.70;;;;;;;23.31;61.41;96917.06;10419417;28;20036;-30
2023/08/23 19:13:50;;;;;;;1.20;1.10;;;;;;;23.38;61.47;96928.03;10430723;28;20029;-31
2023/08/23 19:18:51;;;;;;;0.82;0.82;;;;;;;23.36;61.74;96925.50;10430182;28;20665;-29
2023/08/23 19:23:51;;;;;;;0.93;0.93;;;;;;;23.36;61.58;96928.06;10439324;28;20038;-30
2023/08/23 19:28:51;;;;;;;0.80;0.80;;;;;;;23.36;61.53;96924.66;10439358;28;20400;-29
2023/08/23 19:33:52;;;;;;;1.23;0.90;;;;;;;23.29;61.68;96916.25;10425378;28;20280;-30
2023/08/23 19:38:52;;;;;;;0.67;0.67;;;;;;;23.37;61.51;96937.41;10439367;28;20045;-29
2023/08/23 19:43:52;;;;;;;0.80;0.80;;;;;;;23.36;61.48;96938.28;10421936;28;20045;-30
2023/08/23 19:48:53;;;;;;;0.83;0.83;;;;;;;23.37;61.52;96937.41;10438787;28;20037;-30
2023/08/23 19:53:53;;;;;;;1.50;0.93;;;;;;;23.37;61.60;96939.97;10449472;28;20108;-29
2023/08/23 19:58:53;;;;;;;0.77;0.77;;;;;;;23.40;61.51;96946.75;10455131;28;20037;-29
2023/08/23 20:03:54;;;;;;;0.70;0.70;;;;;;;23.37;61.64;96945.09;10431581;28;20029;-29
2023/08/23 20:08:57;;;;;;;1.00;1.00;;;;;;;23.39;61.72;96947.63;10425756;28;20501;-29
2023/08/23 20:13:57;;;;;;;1.35;1.25;;;;;;;23.39;61.24;96955.28;10433653;28;20291;-29
2023/08/23 20:19:00;;;;;;;1.10;1.00;;;;;;;23.37;61.52;96957.88;10444202;28;20487;-29
2023/08/23 20:24:02;;;;;;;0.88;0.88;;;;;;;23.36;61.52;96953.63;10430317;28;20120;-29
2023/08/23 20:29:03;;;;;;;1.10;1.00;;;;;;;23.37;61.46;96957.88;10433746;28;20040;-30
2023/08/23 20:34:03;;;;;;;0.90;0.90;;;;;;;23.38;61.43;96959.53;10425563;28;20112;-29
2023/08/23 20:39:04;;;;;;;0.80;0.80;;;;;;;23.38;61.66;96954.44;10414127;28;20478;-30
2023/08/23 20:44:05;;;;;;;0.60;0.60;;;;;;;23.32;61.45;96935.81;10433035;28;20303;-29
2023/08/23 20:49:05;;;;;;;0.70;0.70;;;;;;;23.37;61.53;96941.69;10417150;28;20061;-30
2023/08/23 20:54:05;;;;;;;0.70;0.70;;;;;;;23.30;61.51;96930.72;10426586;28;20081;-30
2023/08/23 20:59:06;;;;;;;0.60;0.60;;;;;;;23.37;61.53;96941.69;10429062;28;20380;-30
2023/08/23 21:04:06;;;;;;;0.73;0.73;;;;;;;23.36;61.51;96930.63;10448818;28;20290;-30
2023/08/23 21:09:07;;;;;;;0.80;0.80;;;;;;;23.35;61.54;96918.72;10433007;28;20048;-28
2023/08/23 21:14:08;;;;;;;0.63;0.63;;;;;;;23.36;61.43;96919.56;10408877;28;20029;-29
2023/08/23 21:19:08;;;;;;;0.80;0.80;;;;;;;23.37;61.38;96924.66;10427005;28;20407;-36
2023/08/23 21:24:09;;;;;;;0.77;0.77;;;;;;;23.38;61.59;96922.91;10423672;28;20036;-29
2023/08/23 21:29:09;;;;;;;0.90;0.90;;;;;;;23.31;61.19;96911.97;10434849;28;20036;-29
2023/08/23 21:34:10;;;;;;;0.90;0.90;;;;;;;23.36;61.46;96928.06;10410901;28;20033;-29
2023/08/23 21:39:12;;;;;;;0.75;0.75;;;;;;;23.38;61.36;96926.31;10424649;28;20044;-29
2023/08/23 21:44:12;;;;;;;0.63;0.63;;;;;;;23.33;61.47;96910.22;10439368;28;20411;-30
2023/08/23 21:49:13;;;;;;;0.90;0.90;;;;;;;23.36;61.38;96910.19;10426404;28;20261;-29
2023/08/23 21:54:13;;;;;;;0.63;0.63;;;;;;;23.37;61.51;96914.41;10431037;28;20041;-29
2023/08/23 21:59:14;;;;;;;0.80;0.80;;;;;;;23.35;61.28;96899.97;10418689;28;20037;-30
2023/08/23 22:04:14;;;;;;;0.90;0.90;;;;;;;23.37;61.45;96898.22;10436164;28;20045;-29
2023/08/23 22:09:14;;;;;;;0.80;0.80;;;;;;;23.38;61.42;96892.25;10427320;28;20115;-30
2023/08/23 22:14:15;;;;;;;0.90;0.90;;;;;;;23.37;61.39;96886.31;10430813;28;20036;-29
2023/08/23 22:19:15;;;;;;;0.60;0.60;;;;;;;23.37;61.44;96881.22;10425581;28;20036;-29
2023/08/23 22:24:15;;;;;;;1.20;0.90;;;;;;;23.39;61.59;96884.56;10440095;28;20052;-29
2023/08/23 22:29:16;;;;;;;0.80;0.80;;;;;;;23.38;61.81;96877.78;10427657;28;20090;-29
2023/08/23 22:34:17;;;;;;;1.00;0.90;;;;;;;23.38;61.52;96876.91;10421997;28;20287;-30
2023/08/23 22:39:17;;;;;;;0.90;0.90;;;;;;;23.38;61.45;96867.56;10449589;28;20033;-30
2023/08/23 22:44:17;;;;;;;0.70;0.70;;;;;;;23.40;61.40;96858.13;10429682;28;20029;-30
2023/08/23 22:49:19;;;;;;;0.77;0.77;;;;;;;23.38;61.36;96849.66;10421956;28;20026;-30
2023/08/23 22:54:20;;;;;;;0.52;0.52;;;;;;;23.37;61.48;96859.91;10435611;28;20454;-30
2023/08/23 22:59:20;;;;;;;0.82;0.82;;;;;;;23.38;61.43;96843.69;10422633;28;20087;-29
2023/08/23 23:04:22;;;;;;;0.70;0.70;;;;;;;23.37;61.37;96842.88;10438364;28;20637;-29
2023/08/23 23:09:22;;;;;;;0.80;0.80;;;;;;;23.31;61.49;96825.09;10425652;28;20045;-29
2023/08/23 23:14:23;;;;;;;0.70;0.70;;;;;;;23.37;61.36;96831.78;10439063;28;20511;-30
2023/08/23 23:19:23;;;;;;;0.70;0.70;;;;;;;23.36;61.26;96818.19;10415740;28;20041;-30